SJX2187 LKPR-LOWW
Flight info
| Callsign | SJX2187 |
|---|---|
| Flight time | 0h 42m |
| Altitude | 17000 |
| Route | VOZ DCT LANUX LANUX7W |
| Aircraft | A359/H-SDE2E3GHIJ3J4J5LM1ORWXY/LB1D1 |
Departure
| Time | 2026-04-24 09:03 |
|---|---|
| Airport | Václav Havel Airport Prague (LKPR) |
Arrival
| Time | 2026-04-24 09:45 |
|---|---|
| Airport | Vienna International Airport (LOWW) |
| Time | Latitude | Longitude | Altitude | Speed | Heading |
|---|---|---|---|---|---|
| 2026-04-24 09:03 | 50.14681 | 13.99960 | 8360 ft | 286 kts | 217° |
| 2026-04-24 09:03 | 50.12875 | 13.98653 | 8982 ft | 296 kts | 198° |
| 2026-04-24 09:03 | 50.10781 | 13.98553 | 9640 ft | 305 kts | 170° |
| 2026-04-24 09:03 | 50.08768 | 13.99658 | 10288 ft | 310 kts | 157° |
| 2026-04-24 09:04 | 50.06763 | 14.01089 | 10603 ft | 325 kts | 155° |
| 2026-04-24 09:04 | 50.04662 | 14.02621 | 10832 ft | 342 kts | 155° |
| 2026-04-24 09:04 | 50.02450 | 14.04208 | 11054 ft | 357 kts | 155° |
| 2026-04-24 09:04 | 50.00138 | 14.05844 | 11265 ft | 372 kts | 155° |
| 2026-04-24 09:05 | 49.97742 | 14.07526 | 11580 ft | 382 kts | 156° |
| 2026-04-24 09:05 | 49.95305 | 14.09227 | 12028 ft | 387 kts | 155° |
| 2026-04-24 09:05 | 49.92837 | 14.10945 | 12530 ft | 390 kts | 155° |
| 2026-04-24 09:05 | 49.90355 | 14.12670 | 13003 ft | 393 kts | 155° |
| 2026-04-24 09:06 | 49.87856 | 14.14436 | 13476 ft | 396 kts | 153° |
| 2026-04-24 09:06 | 49.85563 | 14.16716 | 13911 ft | 398 kts | 138° |
| 2026-04-24 09:06 | 49.83665 | 14.19885 | 14378 ft | 396 kts | 126° |
| 2026-04-24 09:06 | 49.81996 | 14.23277 | 14816 ft | 397 kts | 124° |
| 2026-04-24 09:07 | 49.80339 | 14.26721 | 15244 ft | 399 kts | 124° |
| 2026-04-24 09:07 | 49.78674 | 14.30169 | 15703 ft | 401 kts | 124° |
| 2026-04-24 09:07 | 49.75322 | 14.37051 | 16609 ft | 405 kts | 124° |
| 2026-04-24 09:08 | 49.73597 | 14.40575 | 17086 ft | 406 kts | 124° |
| 2026-04-24 09:08 | 49.71909 | 14.44013 | 17542 ft | 408 kts | 124° |
| 2026-04-24 09:08 | 49.70186 | 14.47516 | 18007 ft | 410 kts | 124° |
| 2026-04-24 09:08 | 49.68455 | 14.51030 | 18425 ft | 413 kts | 124° |
| 2026-04-24 09:09 | 49.66747 | 14.54597 | 18811 ft | 414 kts | 121° |
| 2026-04-24 09:09 | 49.65171 | 14.58318 | 19192 ft | 416 kts | 119° |
| 2026-04-24 09:09 | 49.63625 | 14.62103 | 19579 ft | 418 kts | 119° |
| 2026-04-24 09:09 | 49.62355 | 14.65222 | 19908 ft | 419 kts | 119° |
| 2026-04-24 09:10 | 49.60802 | 14.69030 | 20301 ft | 420 kts | 119° |
| 2026-04-24 09:10 | 49.59241 | 14.72844 | 20688 ft | 422 kts | 120° |
| 2026-04-24 09:10 | 49.57672 | 14.76675 | 21046 ft | 424 kts | 120° |
| 2026-04-24 09:10 | 49.56092 | 14.80519 | 21407 ft | 426 kts | 120° |
| 2026-04-24 09:11 | 49.54499 | 14.84375 | 21780 ft | 428 kts | 121° |
| 2026-04-24 09:11 | 49.52638 | 14.87976 | 22123 ft | 433 kts | 133° |
| 2026-04-24 09:11 | 49.50410 | 14.91107 | 22486 ft | 435 kts | 138° |
| 2026-04-24 09:11 | 49.48026 | 14.94010 | 22870 ft | 437 kts | 141° |
| 2026-04-24 09:12 | 49.45577 | 14.96791 | 23231 ft | 439 kts | 142° |
| 2026-04-24 09:12 | 49.43090 | 14.99553 | 23548 ft | 442 kts | 142° |
| 2026-04-24 09:12 | 49.40595 | 15.02344 | 23873 ft | 444 kts | 142° |
| 2026-04-24 09:12 | 49.38110 | 15.05163 | 24171 ft | 446 kts | 142° |
| 2026-04-24 09:13 | 49.35618 | 15.08016 | 24448 ft | 447 kts | 141° |
| 2026-04-24 09:13 | 49.33119 | 15.10890 | 24722 ft | 450 kts | 141° |
| 2026-04-24 09:13 | 49.30642 | 15.13744 | 24995 ft | 452 kts | 141° |
| 2026-04-24 09:13 | 49.28135 | 15.16635 | 25155 ft | 454 kts | 141° |
| 2026-04-24 09:14 | 49.25547 | 15.19622 | 24913 ft | 473 kts | 141° |
| 2026-04-24 09:14 | 49.22937 | 15.22628 | 24401 ft | 467 kts | 141° |
| 2026-04-24 09:14 | 49.20345 | 15.25607 | 23743 ft | 465 kts | 141° |
| 2026-04-24 09:14 | 49.17758 | 15.28579 | 22964 ft | 464 kts | 141° |
| 2026-04-24 09:15 | 49.15186 | 15.31527 | 22294 ft | 460 kts | 141° |
| 2026-04-24 09:15 | 49.12643 | 15.34439 | 21650 ft | 456 kts | 141° |
| 2026-04-24 09:15 | 49.10115 | 15.37331 | 20984 ft | 452 kts | 141° |
| 2026-04-24 09:15 | 49.07605 | 15.40201 | 20332 ft | 449 kts | 141° |
| 2026-04-24 09:16 | 49.05111 | 15.43047 | 19661 ft | 447 kts | 141° |
| 2026-04-24 09:16 | 49.02627 | 15.45879 | 18985 ft | 445 kts | 141° |
| 2026-04-24 09:16 | 49.00157 | 15.48693 | 18297 ft | 442 kts | 141° |
| 2026-04-24 09:16 | 48.97697 | 15.51491 | 17559 ft | 439 kts | 141° |
| 2026-04-24 09:17 | 48.95264 | 15.54255 | 16896 ft | 434 kts | 141° |
| 2026-04-24 09:17 | 48.92852 | 15.56992 | 16217 ft | 431 kts | 141° |
| 2026-04-24 09:17 | 48.90457 | 15.59705 | 15579 ft | 427 kts | 141° |
| 2026-04-24 09:17 | 48.88093 | 15.62426 | 15205 ft | 427 kts | 140° |
| 2026-04-24 09:18 | 48.85752 | 15.65224 | 15119 ft | 428 kts | 140° |
| 2026-04-24 09:18 | 48.83436 | 15.68006 | 14856 ft | 420 kts | 140° |
| 2026-04-24 09:18 | 48.81176 | 15.70715 | 14593 ft | 406 kts | 140° |
| 2026-04-24 09:18 | 48.78982 | 15.73342 | 14441 ft | 401 kts | 140° |
| 2026-04-24 09:19 | 48.76774 | 15.75985 | 14271 ft | 411 kts | 140° |
| 2026-04-24 09:19 | 48.74495 | 15.78711 | 14115 ft | 421 kts | 140° |
| 2026-04-24 09:19 | 48.72187 | 15.81463 | 13949 ft | 422 kts | 140° |
| 2026-04-24 09:19 | 48.69882 | 15.84208 | 13796 ft | 421 kts | 140° |
| 2026-04-24 09:20 | 48.67578 | 15.86947 | 13636 ft | 421 kts | 140° |
| 2026-04-24 09:20 | 48.65276 | 15.89681 | 13478 ft | 421 kts | 140° |
| 2026-04-24 09:20 | 48.62975 | 15.92412 | 13299 ft | 420 kts | 140° |
| 2026-04-24 09:20 | 48.60684 | 15.95126 | 13142 ft | 417 kts | 140° |
| 2026-04-24 09:21 | 48.58403 | 15.97826 | 12997 ft | 416 kts | 140° |
| 2026-04-24 09:21 | 48.56125 | 16.00517 | 12837 ft | 415 kts | 140° |
| 2026-04-24 09:21 | 48.53852 | 16.03202 | 12686 ft | 414 kts | 140° |
| 2026-04-24 09:21 | 48.51586 | 16.05884 | 12510 ft | 413 kts | 140° |
| 2026-04-24 09:22 | 48.49565 | 16.08923 | 12371 ft | 409 kts | 124° |
| 2026-04-24 09:22 | 48.48281 | 16.12690 | 12212 ft | 402 kts | 104° |
| 2026-04-24 09:22 | 48.47824 | 16.16797 | 12065 ft | 396 kts | 91° |
| 2026-04-24 09:22 | 48.47660 | 16.20872 | 11926 ft | 394 kts | 89° |
| 2026-04-24 09:23 | 48.47526 | 16.24993 | 11775 ft | 393 kts | 89° |
| 2026-04-24 09:23 | 48.47385 | 16.29094 | 11623 ft | 392 kts | 89° |
| 2026-04-24 09:23 | 48.47236 | 16.33190 | 11460 ft | 391 kts | 90° |
| 2026-04-24 09:23 | 48.47080 | 16.37286 | 11316 ft | 391 kts | 90° |
| 2026-04-24 09:24 | 48.46921 | 16.41369 | 11182 ft | 390 kts | 90° |
| 2026-04-24 09:24 | 48.46811 | 16.44125 | 11070 ft | 390 kts | 90° |
| 2026-04-24 09:24 | 48.46635 | 16.48201 | 10926 ft | 390 kts | 91° |
| 2026-04-24 09:24 | 48.46059 | 16.52149 | 10771 ft | 396 kts | 109° |
| 2026-04-24 09:25 | 48.44614 | 16.55631 | 10656 ft | 389 kts | 131° |
| 2026-04-24 09:25 | 48.42499 | 16.58000 | 10523 ft | 373 kts | 154° |
| 2026-04-24 09:25 | 48.40066 | 16.59232 | 10393 ft | 357 kts | 165° |
| 2026-04-24 09:25 | 48.37742 | 16.60123 | 10256 ft | 342 kts | 166° |
| 2026-04-24 09:26 | 48.35478 | 16.60992 | 10104 ft | 328 kts | 166° |
| 2026-04-24 09:26 | 48.33314 | 16.61852 | 9959 ft | 316 kts | 165° |
| 2026-04-24 09:26 | 48.31226 | 16.62701 | 9780 ft | 304 kts | 165° |
| 2026-04-24 09:26 | 48.29218 | 16.63528 | 9645 ft | 296 kts | 165° |
| 2026-04-24 09:27 | 48.27180 | 16.64375 | 9488 ft | 310 kts | 165° |
| 2026-04-24 09:27 | 48.25085 | 16.65249 | 9368 ft | 313 kts | 165° |
| 2026-04-24 09:27 | 48.22987 | 16.66127 | 9263 ft | 312 kts | 165° |
| 2026-04-24 09:27 | 48.20895 | 16.67002 | 9139 ft | 312 kts | 165° |
| 2026-04-24 09:28 | 48.18806 | 16.67876 | 9012 ft | 311 kts | 165° |
| 2026-04-24 09:28 | 48.16724 | 16.68746 | 8810 ft | 312 kts | 165° |
| 2026-04-24 09:28 | 48.14636 | 16.69620 | 8638 ft | 310 kts | 165° |
| 2026-04-24 09:28 | 48.12558 | 16.70487 | 8610 ft | 310 kts | 165° |
| 2026-04-24 09:29 | 48.10481 | 16.71355 | 8560 ft | 309 kts | 165° |
| 2026-04-24 09:29 | 48.08413 | 16.72217 | 8507 ft | 309 kts | 166° |
| 2026-04-24 09:29 | 48.06339 | 16.73080 | 8455 ft | 309 kts | 166° |
| 2026-04-24 09:29 | 48.04270 | 16.73940 | 8389 ft | 309 kts | 166° |
| 2026-04-24 09:30 | 48.02229 | 16.74787 | 8163 ft | 307 kts | 166° |
| 2026-04-24 09:30 | 47.99479 | 16.75927 | 7873 ft | 306 kts | 166° |
| 2026-04-24 09:30 | 47.98118 | 16.76491 | 7776 ft | 306 kts | 166° |
| 2026-04-24 09:30 | 47.96071 | 16.77339 | 7628 ft | 305 kts | 166° |
| 2026-04-24 09:31 | 47.94023 | 16.78187 | 7468 ft | 304 kts | 166° |
| 2026-04-24 09:31 | 47.91989 | 16.79028 | 7323 ft | 303 kts | 166° |
| 2026-04-24 09:31 | 47.89964 | 16.79865 | 7175 ft | 302 kts | 167° |
| 2026-04-24 09:31 | 47.87937 | 16.80700 | 7033 ft | 301 kts | 167° |
| 2026-04-24 09:32 | 47.85918 | 16.81530 | 6883 ft | 301 kts | 167° |
| 2026-04-24 09:32 | 47.83899 | 16.82360 | 6757 ft | 300 kts | 167° |
| 2026-04-24 09:32 | 47.81886 | 16.83192 | 6592 ft | 300 kts | 168° |
| 2026-04-24 09:32 | 47.79905 | 16.84007 | 6446 ft | 290 kts | 168° |
| 2026-04-24 09:33 | 47.78003 | 16.84789 | 6298 ft | 279 kts | 168° |
| 2026-04-24 09:33 | 47.76141 | 16.85552 | 6150 ft | 276 kts | 168° |
| 2026-04-24 09:33 | 47.74288 | 16.86275 | 5994 ft | 274 kts | 172° |
| 2026-04-24 09:33 | 47.72432 | 16.86273 | 5835 ft | 263 kts | 200° |
| 2026-04-24 09:34 | 47.70907 | 16.84997 | 5686 ft | 247 kts | 231° |
| 2026-04-24 09:34 | 47.70036 | 16.82908 | 5533 ft | 235 kts | 255° |
| 2026-04-24 09:34 | 47.69585 | 16.80596 | 5367 ft | 231 kts | 264° |
| 2026-04-24 09:34 | 47.69586 | 16.78260 | 5198 ft | 225 kts | 285° |
| 2026-04-24 09:35 | 47.70225 | 16.76181 | 5023 ft | 221 kts | 308° |
| 2026-04-24 09:35 | 47.71398 | 16.74732 | 4852 ft | 223 kts | 330° |
| 2026-04-24 09:35 | 47.72861 | 16.73942 | 4666 ft | 225 kts | 341° |
| 2026-04-24 09:35 | 47.74368 | 16.73369 | 4506 ft | 220 kts | 345° |
| 2026-04-24 09:36 | 47.75839 | 16.72975 | 4352 ft | 209 kts | 346° |
| 2026-04-24 09:36 | 47.77226 | 16.72542 | 4209 ft | 198 kts | 343° |
| 2026-04-24 09:36 | 47.78518 | 16.72043 | 4080 ft | 187 kts | 341° |
| 2026-04-24 09:36 | 47.79733 | 16.71539 | 4005 ft | 177 kts | 341° |
| 2026-04-24 09:37 | 47.80907 | 16.71035 | 3986 ft | 175 kts | 340° |
| 2026-04-24 09:37 | 47.82074 | 16.70526 | 3978 ft | 175 kts | 340° |
| 2026-04-24 09:37 | 47.83225 | 16.70022 | 3976 ft | 175 kts | 340° |
| 2026-04-24 09:37 | 47.84397 | 16.69511 | 3981 ft | 176 kts | 340° |
| 2026-04-24 09:38 | 47.85572 | 16.69004 | 3920 ft | 176 kts | 340° |
| 2026-04-24 09:38 | 47.86748 | 16.68502 | 3832 ft | 173 kts | 341° |
| 2026-04-24 09:38 | 47.87866 | 16.68031 | 3760 ft | 160 kts | 340° |
| 2026-04-24 09:38 | 47.88885 | 16.67607 | 3672 ft | 145 kts | 340° |
| 2026-04-24 09:39 | 47.89830 | 16.67211 | 3555 ft | 137 kts | 340° |
| 2026-04-24 09:39 | 47.90713 | 16.66839 | 3452 ft | 127 kts | 340° |
| 2026-04-24 09:39 | 47.91546 | 16.66487 | 3363 ft | 123 kts | 340° |
| 2026-04-24 09:39 | 47.92348 | 16.66148 | 3235 ft | 119 kts | 340° |
| 2026-04-24 09:40 | 47.93155 | 16.65800 | 3122 ft | 122 kts | 340° |
| 2026-04-24 09:40 | 47.93968 | 16.65451 | 3007 ft | 121 kts | 340° |
| 2026-04-24 09:40 | 47.94791 | 16.65102 | 3002 ft | 125 kts | 339° |
| 2026-04-24 09:40 | 47.95639 | 16.64742 | 3006 ft | 128 kts | 340° |
| 2026-04-24 09:41 | 47.96501 | 16.64376 | 2997 ft | 129 kts | 341° |
| 2026-04-24 09:41 | 47.97359 | 16.64011 | 2946 ft | 129 kts | 341° |
| 2026-04-24 09:41 | 47.98222 | 16.63647 | 2770 ft | 128 kts | 341° |
| 2026-04-24 09:41 | 47.99079 | 16.63283 | 2574 ft | 130 kts | 342° |
| 2026-04-24 09:42 | 47.99927 | 16.62925 | 2409 ft | 125 kts | 343° |
| 2026-04-24 09:42 | 48.00763 | 16.62572 | 2242 ft | 126 kts | 342° |
| 2026-04-24 09:42 | 48.01604 | 16.62214 | 2099 ft | 126 kts | 341° |
| 2026-04-24 09:42 | 48.02450 | 16.61856 | 1891 ft | 126 kts | 340° |
| 2026-04-24 09:43 | 48.03293 | 16.61497 | 1732 ft | 126 kts | 341° |
| 2026-04-24 09:43 | 48.04133 | 16.61139 | 1569 ft | 125 kts | 341° |
| 2026-04-24 09:43 | 48.04969 | 16.60784 | 1422 ft | 125 kts | 341° |
| 2026-04-24 09:43 | 48.05805 | 16.60431 | 1254 ft | 125 kts | 341° |
| 2026-04-24 09:44 | 48.06643 | 16.60076 | 1083 ft | 125 kts | 340° |
| 2026-04-24 09:44 | 48.07476 | 16.59722 | 910 ft | 125 kts | 341° |
| 2026-04-24 09:44 | 48.08303 | 16.59372 | 752 ft | 122 kts | 340° |
| 2026-04-24 09:44 | 48.09099 | 16.59014 | 640 ft | 108 kts | 345° |
| 2026-04-24 09:45 | 48.09742 | 16.58759 | 639 ft | 84 kts | 345° |
| 2026-04-24 09:45 | 48.10248 | 16.58548 | 631 ft | 55 kts | 344° |
| 2026-04-24 09:45 | 48.10501 | 16.58441 | 627 ft | 35 kts | 344° |
| 2026-04-24 09:45 | 48.10704 | 16.58296 | 627 ft | 30 kts | 316° |
| 2026-04-24 09:46 | 48.10851 | 16.58094 | 630 ft | 28 kts | 316° |
| 2026-04-24 09:46 | 48.10984 | 16.57892 | 631 ft | 26 kts | 314° |
| 2026-04-24 09:46 | 48.11124 | 16.57751 | 630 ft | 23 kts | 328° |
| 2026-04-24 09:46 | 48.11207 | 16.57561 | 628 ft | 21 kts | 296° |
| 2026-04-24 09:47 | 48.11269 | 16.57370 | 635 ft | 20 kts | 296° |
| 2026-04-24 09:47 | 48.11330 | 16.57187 | 633 ft | 20 kts | 296° |
| 2026-04-24 09:47 | 48.11389 | 16.57003 | 636 ft | 19 kts | 294° |
| 2026-04-24 09:47 | 48.11481 | 16.56892 | 629 ft | 18 kts | 14° |
| 2026-04-24 09:48 | 48.11601 | 16.56870 | 622 ft | 13 kts | 343° |
| 2026-04-24 09:48 | 48.11665 | 16.56897 | 625 ft | 1 kts | 22° |